sensor_id;sensor_type;location;lat;lon;timestamp;temperature;humidity
49711;DHT22;35602;44.534;18.696;2023-04-12T00:00:36;20.80;53.50
49711;DHT22;35602;44.534;18.696;2023-04-12T00:05:36;20.80;53.50
49711;DHT22;35602;44.534;18.696;2023-04-12T00:10:37;20.80;53.50
49711;DHT22;35602;44.534;18.696;2023-04-12T00:15:38;20.80;53.60
49711;DHT22;35602;44.534;18.696;2023-04-12T00:20:38;20.80;53.50
49711;DHT22;35602;44.534;18.696;2023-04-12T00:25:39;20.80;53.40
49711;DHT22;35602;44.534;18.696;2023-04-12T00:30:40;20.80;53.50
49711;DHT22;35602;44.534;18.696;2023-04-12T00:35:41;20.80;53.50
49711;DHT22;35602;44.534;18.696;2023-04-12T00:40:42;20.80;53.60
49711;DHT22;35602;44.534;18.696;2023-04-12T00:45:43;20.80;53.60
49711;DHT22;35602;44.534;18.696;2023-04-12T00:50:45;20.80;53.60
49711;DHT22;35602;44.534;18.696;2023-04-12T00:55:47;20.80;53.60
49711;DHT22;35602;44.534;18.696;2023-04-12T01:00:48;20.80;53.50
49711;DHT22;35602;44.534;18.696;2023-04-12T01:06:03;20.80;53.60
49711;DHT22;35602;44.534;18.696;2023-04-12T01:12:04;20.70;53.50
49711;DHT22;35602;44.534;18.696;2023-04-12T01:17:08;20.80;53.60
49711;DHT22;35602;44.534;18.696;2023-04-12T01:22:25;20.80;53.60
49711;DHT22;35602;44.534;18.696;2023-04-12T01:27:41;20.80;53.60
49711;DHT22;35602;44.534;18.696;2023-04-12T01:32:44;20.80;53.60
49711;DHT22;35602;44.534;18.696;2023-04-12T01:37:48;20.80;53.60
49711;DHT22;35602;44.534;18.696;2023-04-12T01:42:49;20.70;53.60
49711;DHT22;35602;44.534;18.696;2023-04-12T01:47:50;20.80;53.60
49711;DHT22;35602;44.534;18.696;2023-04-12T01:53:17;20.80;53.70
49711;DHT22;35602;44.534;18.696;2023-04-12T01:58:20;20.80;53.60
49711;DHT22;35602;44.534;18.696;2023-04-12T02:03:21;20.70;53.50
49711;DHT22;35602;44.534;18.696;2023-04-12T02:08:22;20.80;53.60
49711;DHT22;35602;44.534;18.696;2023-04-12T02:13:23;20.80;53.70
49711;DHT22;35602;44.534;18.696;2023-04-12T02:18:25;20.80;53.60
49711;DHT22;35602;44.534;18.696;2023-04-12T02:23:27;20.70;53.60
49711;DHT22;35602;44.534;18.696;2023-04-12T02:28:28;20.80;53.60
49711;DHT22;35602;44.534;18.696;2023-04-12T02:33:29;20.70;53.60
49711;DHT22;35602;44.534;18.696;2023-04-12T02:38:33;20.80;53.70
49711;DHT22;35602;44.534;18.696;2023-04-12T02:43:34;20.70;53.60
49711;DHT22;35602;44.534;18.696;2023-04-12T02:48:34;20.70;53.60
49711;DHT22;35602;44.534;18.696;2023-04-12T02:53:35;20.80;53.70
49711;DHT22;35602;44.534;18.696;2023-04-12T02:58:36;20.70;53.70
49711;DHT22;35602;44.534;18.696;2023-04-12T03:03:37;20.70;53.70
49711;DHT22;35602;44.534;18.696;2023-04-12T03:08:38;20.70;53.70
49711;DHT22;35602;44.534;18.696;2023-04-12T03:13:39;20.70;53.80
49711;DHT22;35602;44.534;18.696;2023-04-12T03:18:39;20.70;53.80
49711;DHT22;35602;44.534;18.696;2023-04-12T03:23:40;20.70;53.80
49711;DHT22;35602;44.534;18.696;2023-04-12T03:28:40;20.70;53.90
49711;DHT22;35602;44.534;18.696;2023-04-12T03:33:42;20.70;53.80
49711;DHT22;35602;44.534;18.696;2023-04-12T03:38:42;20.70;53.90
49711;DHT22;35602;44.534;18.696;2023-04-12T03:43:43;20.70;53.90
49711;DHT22;35602;44.534;18.696;2023-04-12T03:48:44;20.70;54.00
49711;DHT22;35602;44.534;18.696;2023-04-12T03:53:44;20.70;54.00
49711;DHT22;35602;44.534;18.696;2023-04-12T03:58:46;20.70;54.10
49711;DHT22;35602;44.534;18.696;2023-04-12T04:03:47;20.70;54.10
49711;DHT22;35602;44.534;18.696;2023-04-12T04:08:47;20.70;54.20
49711;DHT22;35602;44.534;18.696;2023-04-12T04:13:48;20.70;54.30
49711;DHT22;35602;44.534;18.696;2023-04-12T04:18:48;20.70;54.30
49711;DHT22;35602;44.534;18.696;2023-04-12T04:23:49;20.70;54.30
49711;DHT22;35602;44.534;18.696;2023-04-12T04:28:51;20.70;54.30
49711;DHT22;35602;44.534;18.696;2023-04-12T04:33:53;20.70;54.40
49711;DHT22;35602;44.534;18.696;2023-04-12T04:38:54;20.70;54.50
49711;DHT22;35602;44.534;18.696;2023-04-12T04:43:55;20.70;54.50
49711;DHT22;35602;44.534;18.696;2023-04-12T04:48:55;20.70;54.40
49711;DHT22;35602;44.534;18.696;2023-04-12T04:53:56;20.70;54.40
49711;DHT22;35602;44.534;18.696;2023-04-12T04:58:57;20.70;54.60
49711;DHT22;35602;44.534;18.696;2023-04-12T05:03:58;20.70;54.50
49711;DHT22;35602;44.534;18.696;2023-04-12T05:08:58;20.70;54.50
49711;DHT22;35602;44.534;18.696;2023-04-12T05:14:00;20.70;54.50
49711;DHT22;35602;44.534;18.696;2023-04-12T05:19:01;20.70;54.60
49711;DHT22;35602;44.534;18.696;2023-04-12T05:24:02;20.70;54.50
49711;DHT22;35602;44.534;18.696;2023-04-12T05:29:02;20.70;54.60
49711;DHT22;35602;44.534;18.696;2023-04-12T05:34:03;20.70;54.50
49711;DHT22;35602;44.534;18.696;2023-04-12T05:39:04;20.70;54.40
49711;DHT22;35602;44.534;18.696;2023-04-12T05:44:04;20.70;54.50
49711;DHT22;35602;44.534;18.696;2023-04-12T05:49:05;20.70;54.50
49711;DHT22;35602;44.534;18.696;2023-04-12T05:54:06;20.70;54.50
49711;DHT22;35602;44.534;18.696;2023-04-12T05:59:06;20.60;54.50
49711;DHT22;35602;44.534;18.696;2023-04-12T06:04:08;20.70;54.50
49711;DHT22;35602;44.534;18.696;2023-04-12T06:09:09;20.70;54.50
49711;DHT22;35602;44.534;18.696;2023-04-12T06:14:09;20.70;54.50
49711;DHT22;35602;44.534;18.696;2023-04-12T06:19:10;20.70;54.50
49711;DHT22;35602;44.534;18.696;2023-04-12T06:24:11;20.70;54.50
49711;DHT22;35602;44.534;18.696;2023-04-12T06:29:12;20.70;54.40
49711;DHT22;35602;44.534;18.696;2023-04-12T06:34:12;20.70;54.40
49711;DHT22;35602;44.534;18.696;2023-04-12T06:39:13;20.70;54.30
49711;DHT22;35602;44.534;18.696;2023-04-12T06:44:15;20.70;54.40
49711;DHT22;35602;44.534;18.696;2023-04-12T06:49:16;20.70;54.40
49711;DHT22;35602;44.534;18.696;2023-04-12T06:54:16;20.70;54.30
49711;DHT22;35602;44.534;18.696;2023-04-12T06:59:17;20.70;54.30
49711;DHT22;35602;44.534;18.696;2023-04-12T07:04:18;20.70;54.30
49711;DHT22;35602;44.534;18.696;2023-04-12T07:09:18;20.70;54.50
49711;DHT22;35602;44.534;18.696;2023-04-12T07:14:19;20.70;54.20
49711;DHT22;35602;44.534;18.696;2023-04-12T07:19:20;20.70;54.10
49711;DHT22;35602;44.534;18.696;2023-04-12T07:24:20;20.70;54.10
49711;DHT22;35602;44.534;18.696;2023-04-12T07:29:21;20.70;54.00
49711;DHT22;35602;44.534;18.696;2023-04-12T07:34:21;20.70;53.90
49711;DHT22;35602;44.534;18.696;2023-04-12T07:39:23;20.70;53.90
49711;DHT22;35602;44.534;18.696;2023-04-12T07:44:24;20.70;53.90
49711;DHT22;35602;44.534;18.696;2023-04-12T07:49:24;20.70;53.90
49711;DHT22;35602;44.534;18.696;2023-04-12T07:54:26;20.70;53.80
49711;DHT22;35602;44.534;18.696;2023-04-12T07:59:27;20.70;53.80
49711;DHT22;35602;44.534;18.696;2023-04-12T08:04:28;20.70;53.80
49711;DHT22;35602;44.534;18.696;2023-04-12T08:09:28;20.70;53.70
49711;DHT22;35602;44.534;18.696;2023-04-12T08:14:30;20.70;53.70
49711;DHT22;35602;44.534;18.696;2023-04-12T08:19:31;20.70;53.80
49711;DHT22;35602;44.534;18.696;2023-04-12T08:24:31;20.70;53.80
49711;DHT22;35602;44.534;18.696;2023-04-12T08:29:32;20.70;53.70
49711;DHT22;35602;44.534;18.696;2023-04-12T08:34:34;20.70;53.70
49711;DHT22;35602;44.534;18.696;2023-04-12T08:39:34;20.70;53.60
49711;DHT22;35602;44.534;18.696;2023-04-12T08:44:37;20.70;53.60
49711;DHT22;35602;44.534;18.696;2023-04-12T08:49:38;20.70;53.60
49711;DHT22;35602;44.534;18.696;2023-04-12T08:54:38;20.70;53.50
49711;DHT22;35602;44.534;18.696;2023-04-12T08:59:40;20.70;53.40
49711;DHT22;35602;44.534;18.696;2023-04-12T09:04:48;20.70;53.40
49711;DHT22;35602;44.534;18.696;2023-04-12T09:09:49;20.70;53.40
49711;DHT22;35602;44.534;18.696;2023-04-12T09:15:06;20.70;53.30
49711;DHT22;35602;44.534;18.696;2023-04-12T09:25:36;20.70;53.30
49711;DHT22;35602;44.534;18.696;2023-04-12T09:30:40;20.70;53.30
49711;DHT22;35602;44.534;18.696;2023-04-12T09:35:42;20.70;53.30
49711;DHT22;35602;44.534;18.696;2023-04-12T09:40:42;20.70;53.30
49711;DHT22;35602;44.534;18.696;2023-04-12T09:45:43;20.70;53.30
49711;DHT22;35602;44.534;18.696;2023-04-12T09:50:44;20.70;53.40
49711;DHT22;35602;44.534;18.696;2023-04-12T09:55:45;20.70;53.30
49711;DHT22;35602;44.534;18.696;2023-04-12T10:00:46;20.70;53.20
49711;DHT22;35602;44.534;18.696;2023-04-12T10:05:49;20.70;53.20
49711;DHT22;35602;44.534;18.696;2023-04-12T10:10:50;20.70;53.20
49711;DHT22;35602;44.534;18.696;2023-04-12T10:15:52;20.70;53.20
49711;DHT22;35602;44.534;18.696;2023-04-12T10:20:53;20.70;53.20
49711;DHT22;35602;44.534;18.696;2023-04-12T10:25:54;20.70;53.20
49711;DHT22;35602;44.534;18.696;2023-04-12T10:30:56;20.70;53.30
49711;DHT22;35602;44.534;18.696;2023-04-12T10:36:01;20.70;53.20
49711;DHT22;35602;44.534;18.696;2023-04-12T10:41:19;20.70;53.30
49711;DHT22;35602;44.534;18.696;2023-04-12T10:52:08;20.70;53.20
49711;DHT22;35602;44.534;18.696;2023-04-12T10:57:39;20.70;53.30
49711;DHT22;35602;44.534;18.696;2023-04-12T11:08:00;20.70;53.30
49711;DHT22;35602;44.534;18.696;2023-04-12T11:13:04;20.70;53.30
49711;DHT22;35602;44.534;18.696;2023-04-12T11:18:06;20.70;53.30
49711;DHT22;35602;44.534;18.696;2023-04-12T11:23:07;20.80;53.40
49711;DHT22;35602;44.534;18.696;2023-04-12T11:28:08;20.70;54.00
49711;DHT22;35602;44.534;18.696;2023-04-12T11:33:08;20.70;53.40
49711;DHT22;35602;44.534;18.696;2023-04-12T11:38:09;20.80;53.40
49711;DHT22;35602;44.534;18.696;2023-04-12T11:43:10;20.70;53.40
49711;DHT22;35602;44.534;18.696;2023-04-12T11:48:13;20.80;53.40
49711;DHT22;35602;44.534;18.696;2023-04-12T11:53:15;20.80;53.50
49711;DHT22;35602;44.534;18.696;2023-04-12T11:58:21;20.70;53.40
49711;DHT22;35602;44.534;18.696;2023-04-12T12:03:21;20.80;53.60
49711;DHT22;35602;44.534;18.696;2023-04-12T12:08:22;20.70;53.50
49711;DHT22;35602;44.534;18.696;2023-04-12T12:13:23;20.70;53.60
49711;DHT22;35602;44.534;18.696;2023-04-12T12:18:24;20.80;53.50
49711;DHT22;35602;44.534;18.696;2023-04-12T12:23:29;20.80;53.40
49711;DHT22;35602;44.534;18.696;2023-04-12T12:28:30;20.80;53.60
49711;DHT22;35602;44.534;18.696;2023-04-12T12:33:36;20.90;53.60
49711;DHT22;35602;44.534;18.696;2023-04-12T12:38:40;20.90;53.70
49711;DHT22;35602;44.534;18.696;2023-04-12T12:43:43;20.90;53.60
49711;DHT22;35602;44.534;18.696;2023-04-12T12:48:46;20.90;53.80
49711;DHT22;35602;44.534;18.696;2023-04-12T12:53:47;21.00;53.90
49711;DHT22;35602;44.534;18.696;2023-04-12T12:58:48;21.00;54.10
49711;DHT22;35602;44.534;18.696;2023-04-12T13:03:51;21.00;54.20
49711;DHT22;35602;44.534;18.696;2023-04-12T13:08:55;21.00;54.30
49711;DHT22;35602;44.534;18.696;2023-04-12T13:13:55;21.10;54.40
49711;DHT22;35602;44.534;18.696;2023-04-12T13:18:56;21.10;54.50
49711;DHT22;35602;44.534;18.696;2023-04-12T13:23:56;21.10;54.50
49711;DHT22;35602;44.534;18.696;2023-04-12T13:28:57;21.10;54.50
49711;DHT22;35602;44.534;18.696;2023-04-12T13:33:58;21.10;54.60
49711;DHT22;35602;44.534;18.696;2023-04-12T13:38:58;21.20;54.70
49711;DHT22;35602;44.534;18.696;2023-04-12T13:43:59;21.20;54.80
49711;DHT22;35602;44.534;18.696;2023-04-12T13:49:00;21.20;54.70
49711;DHT22;35602;44.534;18.696;2023-04-12T13:54:02;21.20;54.80
49711;DHT22;35602;44.534;18.696;2023-04-12T13:59:03;21.20;54.80
49711;DHT22;35602;44.534;18.696;2023-04-12T14:04:03;21.20;54.80
49711;DHT22;35602;44.534;18.696;2023-04-12T14:09:05;21.20;55.00
49711;DHT22;35602;44.534;18.696;2023-04-12T14:14:06;21.20;55.00
49711;DHT22;35602;44.534;18.696;2023-04-12T14:19:06;21.20;54.80
49711;DHT22;35602;44.534;18.696;2023-04-12T14:24:07;21.20;54.80
49711;DHT22;35602;44.534;18.696;2023-04-12T14:29:08;21.10;54.50
49711;DHT22;35602;44.534;18.696;2023-04-12T14:34:09;21.10;54.40
49711;DHT22;35602;44.534;18.696;2023-04-12T14:39:10;21.10;54.40
49711;DHT22;35602;44.534;18.696;2023-04-12T14:44:10;21.10;54.90
49711;DHT22;35602;44.534;18.696;2023-04-12T14:49:11;21.10;54.30
49711;DHT22;35602;44.534;18.696;2023-04-12T14:54:12;21.10;54.30
49711;DHT22;35602;44.534;18.696;2023-04-12T14:59:13;21.10;54.20
49711;DHT22;35602;44.534;18.696;2023-04-12T15:04:14;21.10;54.10
49711;DHT22;35602;44.534;18.696;2023-04-12T15:09:14;21.00;54.10
49711;DHT22;35602;44.534;18.696;2023-04-12T15:14:16;21.00;54.00
49711;DHT22;35602;44.534;18.696;2023-04-12T15:19:19;21.00;54.00
49711;DHT22;35602;44.534;18.696;2023-04-12T15:24:22;21.00;53.90
49711;DHT22;35602;44.534;18.696;2023-04-12T15:29:23;21.00;53.90
49711;DHT22;35602;44.534;18.696;2023-04-12T15:34:26;21.00;53.90
49711;DHT22;35602;44.534;18.696;2023-04-12T15:39:27;21.00;53.80
49711;DHT22;35602;44.534;18.696;2023-04-12T15:44:28;21.00;53.80
49711;DHT22;35602;44.534;18.696;2023-04-12T15:49:31;21.00;53.90
49711;DHT22;35602;44.534;18.696;2023-04-12T15:54:31;21.00;53.70
49711;DHT22;35602;44.534;18.696;2023-04-12T15:59:32;21.00;53.60
49711;DHT22;35602;44.534;18.696;2023-04-12T16:04:33;21.00;53.60
49711;DHT22;35602;44.534;18.696;2023-04-12T16:09:35;21.00;53.60
49711;DHT22;35602;44.534;18.696;2023-04-12T16:14:35;21.00;53.60
49711;DHT22;35602;44.534;18.696;2023-04-12T16:19:36;21.00;53.50
49711;DHT22;35602;44.534;18.696;2023-04-12T16:24:37;21.00;53.40
49711;DHT22;35602;44.534;18.696;2023-04-12T16:29:38;21.00;53.40
49711;DHT22;35602;44.534;18.696;2023-04-12T16:34:40;21.00;53.30
49711;DHT22;35602;44.534;18.696;2023-04-12T16:39:44;21.00;53.30
49711;DHT22;35602;44.534;18.696;2023-04-12T16:44:45;21.00;53.20
49711;DHT22;35602;44.534;18.696;2023-04-12T16:49:46;21.00;53.20
49711;DHT22;35602;44.534;18.696;2023-04-12T16:54:46;21.00;53.20
49711;DHT22;35602;44.534;18.696;2023-04-12T16:59:47;21.00;53.10
49711;DHT22;35602;44.534;18.696;2023-04-12T17:04:48;21.00;53.00
49711;DHT22;35602;44.534;18.696;2023-04-12T17:09:48;21.10;53.10
49711;DHT22;35602;44.534;18.696;2023-04-12T17:14:49;21.00;53.00
49711;DHT22;35602;44.534;18.696;2023-04-12T17:19:50;21.00;52.80
49711;DHT22;35602;44.534;18.696;2023-04-12T17:24:51;21.00;52.90
49711;DHT22;35602;44.534;18.696;2023-04-12T17:29:52;21.00;52.80
49711;DHT22;35602;44.534;18.696;2023-04-12T17:34:52;21.00;52.70
49711;DHT22;35602;44.534;18.696;2023-04-12T17:39:54;21.00;52.60
49711;DHT22;35602;44.534;18.696;2023-04-12T17:44:55;21.00;52.50
49711;DHT22;35602;44.534;18.696;2023-04-12T17:49:55;21.00;52.40
49711;DHT22;35602;44.534;18.696;2023-04-12T17:54:56;21.00;52.30
49711;DHT22;35602;44.534;18.696;2023-04-12T17:59:56;21.00;52.30
49711;DHT22;35602;44.534;18.696;2023-04-12T18:04:57;21.00;52.40
49711;DHT22;35602;44.534;18.696;2023-04-12T18:09:58;21.00;52.20
49711;DHT22;35602;44.534;18.696;2023-04-12T18:15:01;21.00;52.20
49711;DHT22;35602;44.534;18.696;2023-04-12T18:20:03;21.00;52.00
49711;DHT22;35602;44.534;18.696;2023-04-12T18:25:09;21.00;51.90
49711;DHT22;35602;44.534;18.696;2023-04-12T18:30:11;21.00;51.90
49711;DHT22;35602;44.534;18.696;2023-04-12T18:35:13;21.00;51.80
49711;DHT22;35602;44.534;18.696;2023-04-12T18:40:14;21.00;51.80
49711;DHT22;35602;44.534;18.696;2023-04-12T18:45:15;21.00;51.60
49711;DHT22;35602;44.534;18.696;2023-04-12T18:50:16;21.00;51.60
49711;DHT22;35602;44.534;18.696;2023-04-12T18:55:18;21.00;51.50
49711;DHT22;35602;44.534;18.696;2023-04-12T19:00:19;21.00;51.30
49711;DHT22;35602;44.534;18.696;2023-04-12T19:05:20;21.00;51.30
49711;DHT22;35602;44.534;18.696;2023-04-12T19:10:21;21.00;51.30
49711;DHT22;35602;44.534;18.696;2023-04-12T19:15:27;21.00;51.30
49711;DHT22;35602;44.534;18.696;2023-04-12T19:20:27;21.00;51.20
49711;DHT22;35602;44.534;18.696;2023-04-12T19:25:28;21.00;51.50
49711;DHT22;35602;44.534;18.696;2023-04-12T19:30:30;21.00;51.00
49711;DHT22;35602;44.534;18.696;2023-04-12T19:35:31;20.90;51.00
49711;DHT22;35602;44.534;18.696;2023-04-12T19:40:34;20.90;50.90
49711;DHT22;35602;44.534;18.696;2023-04-12T19:45:35;21.00;50.90
49711;DHT22;35602;44.534;18.696;2023-04-12T19:50:37;20.90;50.80
49711;DHT22;35602;44.534;18.696;2023-04-12T19:55:37;20.90;50.80
49711;DHT22;35602;44.534;18.696;2023-04-12T20:00:38;20.90;50.70
49711;DHT22;35602;44.534;18.696;2023-04-12T20:05:40;20.90;50.50
49711;DHT22;35602;44.534;18.696;2023-04-12T20:10:42;20.90;50.50
49711;DHT22;35602;44.534;18.696;2023-04-12T20:15:43;20.90;50.50
49711;DHT22;35602;44.534;18.696;2023-04-12T20:20:44;20.90;50.50
49711;DHT22;35602;44.534;18.696;2023-04-12T20:25:44;20.90;50.40
49711;DHT22;35602;44.534;18.696;2023-04-12T20:30:48;20.90;50.30
49711;DHT22;35602;44.534;18.696;2023-04-12T20:35:49;20.90;50.30
49711;DHT22;35602;44.534;18.696;2023-04-12T20:40:50;20.90;50.20
49711;DHT22;35602;44.534;18.696;2023-04-12T20:45:52;20.90;50.10
49711;DHT22;35602;44.534;18.696;2023-04-12T20:50:53;20.90;50.00
49711;DHT22;35602;44.534;18.696;2023-04-12T20:55:55;20.90;50.70
49711;DHT22;35602;44.534;18.696;2023-04-12T21:00:56;20.90;50.00
49711;DHT22;35602;44.534;18.696;2023-04-12T21:05:59;20.90;50.00
49711;DHT22;35602;44.534;18.696;2023-04-12T21:11:00;20.90;49.80
49711;DHT22;35602;44.534;18.696;2023-04-12T21:16:01;20.90;49.80
49711;DHT22;35602;44.534;18.696;2023-04-12T21:21:02;20.90;49.70
49711;DHT22;35602;44.534;18.696;2023-04-12T21:26:03;20.90;49.70
49711;DHT22;35602;44.534;18.696;2023-04-12T21:31:04;20.90;49.70
49711;DHT22;35602;44.534;18.696;2023-04-12T21:36:05;20.90;49.70
49711;DHT22;35602;44.534;18.696;2023-04-12T21:41:07;20.90;49.80
49711;DHT22;35602;44.534;18.696;2023-04-12T21:46:09;20.90;49.80
49711;DHT22;35602;44.534;18.696;2023-04-12T21:51:11;20.90;49.80
49711;DHT22;35602;44.534;18.696;2023-04-12T21:56:11;20.90;49.80
49711;DHT22;35602;44.534;18.696;2023-04-12T22:01:12;20.90;49.90
49711;DHT22;35602;44.534;18.696;2023-04-12T22:06:13;20.90;49.90
49711;DHT22;35602;44.534;18.696;2023-04-12T22:11:14;20.90;49.90
49711;DHT22;35602;44.534;18.696;2023-04-12T22:16:16;20.90;50.00
49711;DHT22;35602;44.534;18.696;2023-04-12T22:21:16;20.90;49.90
49711;DHT22;35602;44.534;18.696;2023-04-12T22:26:17;20.90;50.10
49711;DHT22;35602;44.534;18.696;2023-04-12T22:31:18;20.90;50.00
49711;DHT22;35602;44.534;18.696;2023-04-12T22:36:21;20.90;50.00
49711;DHT22;35602;44.534;18.696;2023-04-12T22:41:25;20.90;50.00
49711;DHT22;35602;44.534;18.696;2023-04-12T22:46:27;20.90;50.00
49711;DHT22;35602;44.534;18.696;2023-04-12T22:51:31;20.90;50.00
49711;DHT22;35602;44.534;18.696;2023-04-12T22:56:32;20.90;50.00
49711;DHT22;35602;44.534;18.696;2023-04-12T23:01:33;20.90;50.00
49711;DHT22;35602;44.534;18.696;2023-04-12T23:06:37;20.90;50.00
49711;DHT22;35602;44.534;18.696;2023-04-12T23:11:39;20.90;50.00
49711;DHT22;35602;44.534;18.696;2023-04-12T23:16:40;20.90;50.00
49711;DHT22;35602;44.534;18.696;2023-04-12T23:21:43;20.90;50.00
49711;DHT22;35602;44.534;18.696;2023-04-12T23:26:44;20.90;50.00
49711;DHT22;35602;44.534;18.696;2023-04-12T23:31:45;20.90;50.00
49711;DHT22;35602;44.534;18.696;2023-04-12T23:36:46;20.90;50.00
49711;DHT22;35602;44.534;18.696;2023-04-12T23:41:49;20.90;50.00
49711;DHT22;35602;44.534;18.696;2023-04-12T23:46:50;20.90;50.10
49711;DHT22;35602;44.534;18.696;2023-04-12T23:51:54;20.90;50.00
49711;DHT22;35602;44.534;18.696;2023-04-12T23:56:54;20.90;50.10
